createdAt,value
2024-04-22T00:01:33.677Z,99.20
2024-04-22T00:04:10.574Z,99.13
2024-04-22T00:06:39.351Z,99.76
2024-04-22T00:09:09.510Z,98.65
2024-04-22T00:11:37.520Z,98.30
2024-04-22T00:14:10.024Z,97.05
2024-04-22T00:16:37.871Z,98.25
2024-04-22T00:19:18.847Z,99.08
2024-04-22T00:21:46.694Z,99.67
2024-04-22T00:24:22.307Z,100.00
2024-04-22T00:26:55.197Z,100.00
2024-04-22T00:29:26.184Z,99.99
2024-04-22T00:31:54.613Z,99.63
2024-04-22T00:34:31.362Z,99.58
2024-04-22T00:36:58.949Z,98.52
2024-04-22T00:39:31.357Z,100.00
2024-04-22T00:42:07.094Z,100.00
2024-04-22T00:44:41.499Z,100.00
2024-04-22T00:47:16.010Z,100.00
2024-04-22T00:49:55.797Z,100.00
2024-04-22T00:52:27.615Z,100.00
2024-04-22T00:55:08.268Z,100.00
2024-04-22T00:57:39.164Z,100.00
2024-04-22T01:00:13.910Z,100.00
2024-04-22T01:02:51.215Z,100.00
2024-04-22T01:05:31.736Z,100.00
2024-04-22T01:07:59.438Z,100.00
2024-04-22T01:10:31.266Z,100.00
2024-04-22T01:12:59.345Z,100.00
2024-04-22T01:15:32.457Z,100.00
2024-04-22T01:18:00.671Z,100.00
2024-04-22T01:20:44.011Z,100.00
2024-04-22T01:23:14.347Z,100.00
2024-04-22T01:25:53.509Z,100.00
2024-04-22T01:28:30.383Z,100.00
2024-04-22T01:31:02.003Z,100.00
2024-04-22T01:33:35.867Z,100.00
2024-04-22T01:36:13.490Z,100.00
2024-04-22T01:38:44.054Z,100.00
2024-04-22T01:41:20.047Z,100.00
2024-04-22T01:43:53.301Z,100.00
2024-04-22T01:46:28.310Z,100.00
2024-04-22T01:48:59.683Z,100.00
2024-04-22T01:51:41.271Z,100.00
2024-04-22T01:54:15.184Z,100.00
2024-04-22T01:56:47.701Z,100.00
2024-04-22T01:59:16.254Z,100.00
2024-04-22T02:01:49.770Z,100.00
2024-04-22T02:04:20.065Z,100.00
2024-04-22T02:06:53.741Z,100.00
2024-04-22T02:09:25.209Z,100.00
2024-04-22T02:11:57.790Z,100.00
2024-04-22T02:14:29.023Z,100.00
2024-04-22T02:16:59.795Z,100.00
2024-04-22T02:19:30.827Z,100.00
2024-04-22T02:22:01.265Z,100.00
2024-04-22T02:24:31.856Z,100.00
2024-04-22T02:27:04.118Z,100.00
2024-04-22T02:29:33.412Z,100.00
2024-04-22T02:32:08.430Z,100.00
2024-04-22T02:34:39.129Z,100.00
2024-04-22T02:37:11.981Z,100.00
2024-04-22T02:39:53.663Z,100.00
2024-04-22T02:42:23.899Z,100.00
2024-04-22T02:44:53.938Z,100.00
2024-04-22T02:47:24.280Z,100.00
2024-04-22T02:49:51.912Z,100.00
2024-04-22T02:52:24.690Z,100.00
2024-04-22T02:54:54.898Z,100.00
2024-04-22T02:57:25.458Z,100.00
2024-04-22T02:59:54.235Z,100.00
2024-04-22T03:02:25.053Z,100.00
2024-04-22T03:04:58.288Z,100.00
2024-04-22T03:07:29.623Z,100.00
2024-04-22T03:10:02.530Z,100.00
2024-04-22T03:12:36.294Z,100.00
2024-04-22T03:15:04.840Z,100.00
2024-04-22T03:17:39.341Z,100.00
2024-04-22T03:20:10.310Z,100.00
2024-04-22T03:22:42.737Z,100.00
2024-04-22T03:25:17.015Z,100.00
2024-04-22T03:27:47.437Z,100.00
2024-04-22T03:30:17.268Z,100.00
2024-04-22T03:32:50.281Z,100.00
2024-04-22T03:35:19.217Z,100.00
2024-04-22T03:37:58.035Z,100.00
2024-04-22T03:40:30.886Z,100.00
2024-04-22T03:43:06.492Z,100.00
2024-04-22T03:45:38.842Z,100.00
2024-04-22T03:48:27.296Z,100.00
2024-04-22T03:51:01.103Z,100.00
2024-04-22T03:53:32.055Z,100.00
2024-04-22T03:56:05.420Z,100.00
2024-04-22T03:58:40.550Z,100.00
2024-04-22T04:01:13.914Z,100.00
2024-04-22T04:03:41.615Z,100.00
2024-04-22T04:06:12.251Z,100.00
2024-04-22T04:08:39.931Z,100.00
2024-04-22T04:11:20.297Z,100.00
2024-04-22T04:13:48.174Z,100.00
2024-04-22T04:16:18.439Z,100.00
2024-04-22T04:18:47.281Z,100.00
2024-04-22T04:21:24.489Z,100.00
2024-04-22T04:23:52.030Z,100.00
2024-04-22T04:26:26.758Z,100.00
2024-04-22T04:29:01.977Z,100.00
2024-04-22T04:31:32.463Z,100.00
2024-04-22T04:34:02.832Z,100.00
2024-04-22T04:36:35.878Z,100.00
2024-04-22T04:39:05.540Z,100.00
2024-04-22T04:41:38.519Z,100.00
2024-04-22T04:44:08.462Z,100.00
2024-04-22T04:46:40.530Z,100.00
2024-04-22T04:49:08.452Z,100.00
2024-04-22T04:51:47.432Z,100.00
2024-04-22T04:54:18.020Z,100.00
2024-04-22T04:56:51.051Z,100.00
2024-04-22T04:59:23.486Z,100.00
2024-04-22T05:01:54.729Z,100.00
2024-04-22T05:04:26.695Z,100.00
2024-04-22T05:06:57.225Z,100.00
2024-04-22T05:09:27.736Z,100.00
2024-04-22T05:12:01.169Z,100.00
2024-04-22T05:14:41.910Z,100.00
2024-04-22T05:17:15.436Z,100.00
2024-04-22T05:19:44.524Z,100.00
2024-04-22T05:22:15.191Z,100.00
2024-04-22T05:24:45.271Z,100.00
2024-04-22T05:27:20.786Z,100.00
2024-04-22T05:29:50.850Z,100.00
2024-04-22T05:32:24.297Z,100.00
2024-04-22T05:35:10.427Z,100.00
2024-04-22T05:37:41.003Z,99.58
2024-04-22T05:40:16.917Z,100.00
2024-04-22T05:42:49.978Z,99.91
2024-04-22T05:45:20.145Z,100.00
2024-04-22T05:47:50.687Z,98.97
2024-04-22T05:50:18.486Z,99.35
2024-04-22T05:52:51.173Z,99.09
2024-04-22T05:55:24.640Z,98.83
2024-04-22T05:57:59.656Z,98.80
2024-04-22T06:00:39.076Z,99.92
2024-04-22T06:03:06.948Z,99.28
2024-04-22T06:05:41.493Z,98.68
2024-04-22T06:08:10.154Z,97.32
2024-04-22T06:10:40.570Z,97.09
2024-04-22T06:13:16.986Z,94.59
2024-04-22T06:15:48.462Z,93.15
2024-04-22T06:18:16.199Z,93.48
2024-04-22T06:20:52.423Z,95.44
2024-04-22T06:23:22.295Z,92.45
2024-04-22T06:25:53.112Z,93.32
2024-04-22T06:28:23.547Z,92.39
2024-04-22T06:30:59.025Z,92.42
2024-04-22T06:33:31.294Z,90.20
2024-04-22T06:36:03.745Z,90.63
2024-04-22T06:38:34.026Z,91.35
2024-04-22T06:41:04.605Z,91.76
2024-04-22T06:43:42.767Z,90.63
2024-04-22T06:46:13.069Z,90.37
2024-04-22T06:48:48.593Z,88.98
2024-04-22T06:51:22.587Z,88.61
2024-04-22T06:53:50.268Z,85.59
2024-04-22T06:56:23.343Z,85.41
2024-04-22T06:59:00.964Z,83.42
2024-04-22T07:01:38.389Z,84.21
2024-04-22T07:04:14.138Z,84.22
2024-04-22T07:06:45.122Z,83.36
2024-04-22T07:09:17.925Z,83.11
2024-04-22T07:11:50.920Z,84.71
2024-04-22T07:14:30.357Z,81.06
2024-04-22T07:17:01.698Z,80.34
2024-04-22T07:19:35.332Z,79.58
2024-04-22T07:22:16.987Z,78.06
2024-04-22T07:24:57.109Z,73.74
2024-04-22T07:27:44.054Z,73.16
2024-04-22T07:30:22.431Z,71.50
2024-04-22T07:32:54.214Z,69.58
2024-04-22T07:35:26.041Z,71.90
2024-04-22T07:38:02.859Z,68.75
2024-04-22T07:40:31.792Z,66.15
2024-04-22T07:43:07.582Z,64.99
2024-04-22T07:45:42.718Z,63.49
2024-04-22T07:48:13.624Z,62.57
2024-04-22T07:50:42.951Z,62.44
2024-04-22T07:53:16.267Z,60.21
2024-04-22T07:55:44.854Z,62.64
2024-04-22T07:58:20.111Z,58.96
2024-04-22T08:00:50.963Z,54.62
2024-04-22T08:03:25.938Z,52.57
2024-04-22T08:05:58.260Z,47.82
2024-04-22T08:08:30.932Z,46.85
2024-04-22T08:11:01.122Z,47.89
2024-04-22T08:13:31.712Z,51.25
2024-04-22T08:16:02.031Z,51.58
2024-04-22T08:18:35.372Z,55.43
2024-04-22T08:21:08.593Z,56.07
2024-04-22T08:23:46.120Z,54.02
2024-04-22T08:26:13.821Z,53.88
2024-04-22T08:28:45.403Z,56.50
2024-04-22T08:31:16.393Z,58.69
2024-04-22T08:33:47.055Z,56.68
2024-04-22T08:36:16.514Z,55.35
2024-04-22T08:38:52.564Z,54.16
2024-04-22T08:41:20.559Z,55.37
2024-04-22T08:43:51.016Z,54.61
2024-04-22T08:46:23.998Z,53.94
2024-04-22T08:48:59.592Z,54.40
2024-04-22T08:51:35.886Z,53.94
2024-04-22T08:54:05.993Z,53.29
2024-04-22T08:56:41.353Z,52.66
2024-04-22T08:59:15.838Z,54.80
2024-04-22T09:02:05.452Z,56.71
2024-04-22T09:04:39.066Z,55.89
2024-04-22T09:07:19.273Z,51.14
2024-04-22T09:10:21.864Z,51.48
2024-04-22T09:13:00.698Z,50.02
2024-04-22T09:15:31.327Z,52.69
2024-04-22T09:18:05.139Z,50.56
2024-04-22T09:20:35.812Z,49.41
2024-04-22T09:23:06.700Z,49.45
2024-04-22T09:25:52.014Z,51.53
2024-04-22T09:28:31.196Z,47.47
2024-04-22T09:31:06.015Z,47.45
2024-04-22T09:33:40.602Z,45.89
2024-04-22T09:36:13.684Z,52.47
2024-04-22T09:38:47.406Z,46.70
2024-04-22T09:41:17.437Z,44.93
2024-04-22T09:43:58.751Z,43.50
2024-04-22T09:46:32.481Z,43.52
2024-04-22T09:49:12.441Z,44.58
2024-04-22T09:51:44.868Z,46.06
2024-04-22T09:54:15.290Z,46.11
2024-04-22T09:56:43.774Z,46.43
2024-04-22T09:59:14.690Z,47.08
2024-04-22T10:01:47.458Z,48.62
2024-04-22T10:04:24.884Z,48.17
2024-04-22T10:06:52.899Z,48.64
2024-04-22T10:09:30.353Z,46.47
2024-04-22T10:12:08.477Z,45.52
2024-04-22T10:14:44.145Z,44.35
2024-04-22T10:17:20.900Z,43.25
2024-04-22T10:20:03.953Z,45.49
2024-04-22T10:22:38.233Z,43.25
2024-04-22T10:25:10.099Z,42.95
2024-04-22T10:27:43.293Z,45.04
2024-04-22T10:30:28.041Z,41.23
2024-04-22T10:32:58.562Z,39.51
2024-04-22T10:35:35.670Z,43.71
2024-04-22T10:38:05.999Z,42.52
2024-04-22T10:40:37.551Z,44.99
2024-04-22T10:43:11.550Z,42.52
2024-04-22T10:45:44.721Z,47.22
2024-04-22T10:48:19.865Z,41.43
2024-04-22T10:50:56.924Z,45.73
2024-04-22T10:53:32.782Z,49.00
2024-04-22T10:56:05.067Z,46.24
2024-04-22T10:58:33.743Z,43.81
2024-04-22T11:01:06.884Z,45.29
2024-04-22T11:03:39.926Z,44.00
2024-04-22T11:06:16.294Z,40.33
2024-04-22T11:08:47.832Z,40.93
2024-04-22T11:11:21.252Z,41.33
2024-04-22T11:13:51.823Z,42.85
2024-04-22T11:16:22.152Z,40.42
2024-04-22T11:19:06.172Z,42.04
2024-04-22T11:21:40.161Z,41.32
2024-04-22T11:24:08.490Z,45.18
2024-04-22T11:26:43.278Z,42.01
2024-04-22T11:29:13.506Z,41.80
2024-04-22T11:31:45.404Z,44.76
2024-04-22T11:34:15.638Z,44.01
2024-04-22T11:36:57.854Z,44.37
2024-04-22T11:39:27.886Z,44.52
2024-04-22T11:41:58.322Z,43.80
2024-04-22T11:44:28.574Z,42.08
2024-04-22T11:47:01.685Z,44.42
2024-04-22T11:49:32.051Z,44.24
2024-04-22T11:52:05.021Z,42.06
2024-04-22T11:54:32.842Z,43.15
2024-04-22T11:57:03.928Z,44.29
2024-04-22T11:59:40.533Z,45.65
2024-04-22T12:02:18.383Z,45.18
2024-04-22T12:04:46.512Z,43.07
2024-04-22T12:07:19.871Z,44.41
2024-04-22T12:09:49.930Z,43.38
2024-04-22T12:12:20.448Z,45.50
2024-04-22T12:14:48.512Z,45.86
2024-04-22T12:17:23.217Z,44.45
2024-04-22T12:19:51.213Z,44.59
2024-04-22T12:22:24.523Z,46.73
2024-04-22T12:24:54.450Z,45.05
2024-04-22T12:27:25.043Z,46.48
2024-04-22T12:29:57.108Z,46.29
2024-04-22T12:32:29.037Z,46.19
2024-04-22T12:35:01.290Z,45.99
2024-04-22T12:37:36.062Z,46.08
2024-04-22T12:40:05.527Z,46.49
2024-04-22T12:42:45.944Z,44.96
2024-04-22T12:45:16.691Z,47.25
2024-04-22T12:48:02.558Z,47.40
2024-04-22T12:50:47.045Z,44.61
2024-04-22T12:53:23.356Z,46.48
2024-04-22T12:55:57.047Z,43.98
2024-04-22T12:58:32.276Z,43.18
2024-04-22T13:01:06.266Z,46.63
2024-04-22T13:03:37.174Z,49.77
2024-04-22T13:06:10.354Z,49.29
2024-04-22T13:08:48.534Z,49.83
2024-04-22T13:11:25.248Z,51.15
2024-04-22T13:13:55.876Z,48.40
2024-04-22T13:16:30.880Z,50.56
2024-04-22T13:19:07.148Z,47.61
2024-04-22T13:21:38.173Z,51.94
2024-04-22T13:24:12.970Z,49.28
2024-04-22T13:26:44.703Z,51.15
2024-04-22T13:29:24.908Z,50.41
2024-04-22T13:31:54.935Z,50.22
2024-04-22T13:34:25.444Z,52.51
2024-04-22T13:36:54.714Z,50.97
2024-04-22T13:39:28.288Z,49.70
2024-04-22T13:41:58.251Z,50.46
2024-04-22T13:44:30.695Z,53.90
2024-04-22T13:47:05.345Z,51.68
2024-04-22T13:49:57.489Z,52.33
2024-04-22T13:52:36.637Z,50.71
2024-04-22T13:55:15.961Z,49.78
2024-04-22T13:57:48.212Z,49.96
2024-04-22T14:00:23.763Z,48.49
2024-04-22T14:02:57.517Z,47.71
2024-04-22T14:05:29.590Z,46.10
2024-04-22T14:08:04.243Z,49.91
2024-04-22T14:10:44.251Z,48.92
2024-04-22T14:13:18.722Z,46.13
2024-04-22T14:15:50.584Z,49.69
2024-04-22T14:18:27.178Z,47.04
2024-04-22T14:21:00.015Z,48.52
2024-04-22T14:23:33.531Z,48.20
2024-04-22T14:26:06.706Z,50.04
2024-04-22T14:28:42.048Z,47.50
2024-04-22T14:31:15.601Z,47.70
2024-04-22T14:33:54.346Z,44.82
2024-04-22T14:36:22.089Z,44.95
2024-04-22T14:38:54.869Z,43.62
2024-04-22T14:41:34.039Z,43.68
2024-04-22T14:44:04.549Z,47.50
2024-04-22T14:46:34.407Z,44.47
2024-04-22T14:49:07.939Z,46.48
2024-04-22T14:51:35.708Z,45.99
2024-04-22T14:54:07.206Z,47.13
2024-04-22T14:56:39.478Z,49.89
2024-04-22T14:59:09.994Z,48.22
2024-04-22T15:01:40.541Z,47.62
2024-04-22T15:04:26.773Z,48.00
2024-04-22T15:06:58.991Z,49.14
2024-04-22T15:09:31.726Z,48.70
2024-04-22T15:12:04.627Z,49.90
2024-04-22T15:14:35.882Z,49.87
2024-04-22T15:17:08.110Z,48.61
2024-04-22T15:19:42.114Z,47.96
2024-04-22T15:22:11.459Z,51.88
2024-04-22T15:24:41.910Z,50.57
2024-04-22T15:27:22.829Z,51.07
2024-04-22T15:29:53.802Z,49.94
2024-04-22T15:32:28.202Z,47.78
2024-04-22T15:34:58.638Z,47.15
2024-04-22T15:37:27.164Z,48.91
2024-04-22T15:39:58.771Z,48.01
2024-04-22T15:42:32.149Z,47.30
2024-04-22T15:45:11.830Z,47.70
2024-04-22T15:47:43.307Z,52.63
2024-04-22T15:50:13.704Z,50.52
2024-04-22T15:52:44.425Z,54.20
2024-04-22T15:55:21.872Z,54.06
2024-04-22T15:57:58.175Z,55.44
2024-04-22T16:00:33.844Z,54.37
2024-04-22T16:03:03.799Z,54.53
2024-04-22T16:05:36.777Z,56.08
2024-04-22T16:08:08.160Z,55.05
2024-04-22T16:10:39.220Z,55.74
2024-04-22T16:13:20.040Z,56.84
2024-04-22T16:15:50.538Z,57.46
2024-04-22T16:18:18.762Z,56.05
2024-04-22T16:20:56.212Z,57.24
2024-04-22T16:23:32.783Z,55.83
2024-04-22T16:26:07.643Z,55.47
2024-04-22T16:28:39.213Z,56.24
2024-04-22T16:31:09.677Z,55.48
2024-04-22T16:33:37.802Z,54.36
2024-04-22T16:36:09.490Z,59.05
2024-04-22T16:38:37.352Z,56.66
2024-04-22T16:41:10.628Z,56.10
2024-04-22T16:43:43.173Z,54.80
2024-04-22T16:46:14.070Z,56.35
2024-04-22T16:48:46.423Z,54.08
2024-04-22T16:51:21.751Z,54.37
2024-04-22T16:53:52.444Z,55.55
2024-04-22T16:56:25.929Z,57.06
2024-04-22T16:58:59.124Z,54.57
2024-04-22T17:01:29.757Z,55.32
2024-04-22T17:04:06.519Z,52.50
2024-04-22T17:06:37.927Z,53.81
2024-04-22T17:09:07.561Z,56.24
2024-04-22T17:11:39.677Z,54.80
2024-04-22T17:14:10.235Z,54.30
2024-04-22T17:16:43.520Z,52.95
2024-04-22T17:19:13.301Z,54.38
2024-04-22T17:21:44.161Z,54.03
2024-04-22T17:24:11.896Z,54.31
2024-04-22T17:26:45.888Z,56.12
2024-04-22T17:29:20.106Z,55.40
2024-04-22T17:31:50.744Z,56.40
2024-04-22T17:34:18.657Z,53.97
2024-04-22T17:36:50.228Z,55.62
2024-04-22T17:39:21.986Z,54.63
2024-04-22T17:41:52.551Z,54.68
2024-04-22T17:44:26.751Z,55.92
2024-04-22T17:47:03.976Z,54.22
2024-04-22T17:49:37.590Z,55.63
2024-04-22T17:52:06.023Z,55.42
2024-04-22T17:54:39.301Z,57.15
2024-04-22T17:57:09.722Z,56.69
2024-04-22T17:59:45.059Z,56.03
2024-04-22T18:02:12.687Z,56.98
2024-04-22T18:04:43.193Z,56.42
2024-04-22T18:07:13.166Z,56.94
2024-04-22T18:09:51.378Z,57.13
2024-04-22T18:12:21.647Z,57.65
2024-04-22T18:14:57.753Z,57.73
2024-04-22T18:17:25.447Z,58.02
2024-04-22T18:19:55.775Z,56.66
2024-04-22T18:22:25.926Z,57.49
2024-04-22T18:24:57.731Z,58.62
2024-04-22T18:27:30.413Z,58.90
2024-04-22T18:30:06.459Z,59.57
2024-04-22T18:32:38.828Z,59.45
2024-04-22T18:35:14.427Z,60.58
2024-04-22T18:37:46.695Z,60.95
2024-04-22T18:40:17.011Z,62.13
2024-04-22T18:42:50.676Z,64.27
2024-04-22T18:45:30.729Z,65.41
2024-04-22T18:48:00.097Z,66.28
2024-04-22T18:50:35.104Z,68.15
2024-04-22T18:53:04.656Z,67.91
2024-04-22T18:55:37.322Z,69.00
2024-04-22T18:58:09.455Z,69.39
2024-04-22T19:00:44.862Z,70.32
2024-04-22T19:03:18.203Z,72.41
2024-04-22T19:05:50.220Z,74.26
2024-04-22T19:08:26.988Z,71.25
2024-04-22T19:11:01.589Z,71.41
2024-04-22T19:13:35.806Z,72.70
2024-04-22T19:16:21.633Z,72.16
2024-04-22T19:18:52.996Z,73.94
2024-04-22T19:21:25.648Z,74.66
2024-04-22T19:23:57.390Z,76.15
2024-04-22T19:26:30.897Z,77.11
2024-04-22T19:29:02.062Z,77.50
2024-04-22T19:31:43.080Z,78.07
2024-04-22T19:34:10.695Z,79.07
2024-04-22T19:36:40.982Z,79.70
2024-04-22T19:39:17.190Z,80.62
2024-04-22T19:41:50.233Z,80.51
2024-04-22T19:44:18.839Z,80.66
2024-04-22T19:46:52.369Z,79.49
2024-04-22T19:49:20.061Z,80.07
2024-04-22T19:51:51.370Z,80.70
2024-04-22T19:54:20.823Z,81.39
2024-04-22T19:56:51.378Z,81.19
2024-04-22T19:59:19.737Z,80.89
2024-04-22T20:02:11.723Z,79.75
2024-04-22T20:05:06.069Z,81.25
2024-04-22T20:07:41.952Z,81.67
2024-04-22T20:10:11.441Z,81.89
2024-04-22T20:12:46.384Z,81.29
2024-04-22T20:15:30.103Z,80.84
2024-04-22T20:18:16.471Z,82.89
2024-04-22T20:20:44.568Z,86.04
2024-04-22T20:23:15.031Z,86.06
2024-04-22T20:25:56.756Z,85.90
2024-04-22T20:28:27.557Z,85.55
2024-04-22T20:31:02.125Z,82.25
2024-04-22T20:33:38.079Z,80.43
2024-04-22T20:36:08.625Z,81.41
2024-04-22T20:38:46.538Z,81.85
2024-04-22T20:41:46.530Z,82.45
2024-04-22T20:44:25.605Z,81.94
2024-04-22T20:46:53.276Z,82.86
2024-04-22T20:49:40.560Z,83.45
2024-04-22T20:52:19.126Z,83.63
2024-04-22T20:54:54.583Z,84.36
2024-04-22T20:57:26.284Z,84.95
2024-04-22T20:59:56.798Z,85.92
2024-04-22T21:02:29.188Z,86.80
2024-04-22T21:05:11.823Z,87.61
2024-04-22T21:07:44.298Z,88.34
2024-04-22T21:10:15.606Z,87.75
2024-04-22T21:12:46.263Z,88.41
2024-04-22T21:15:19.764Z,89.62
2024-04-22T21:17:47.519Z,89.21
2024-04-22T21:20:20.706Z,88.86
2024-04-22T21:22:59.447Z,89.63
2024-04-22T21:25:36.958Z,90.27
2024-04-22T21:28:39.305Z,90.96
2024-04-22T21:31:21.308Z,90.36
2024-04-22T21:34:07.150Z,90.92
2024-04-22T21:36:40.048Z,91.46
2024-04-22T21:39:15.432Z,92.03
2024-04-22T21:41:55.553Z,91.92
2024-04-22T21:44:27.418Z,91.92
2024-04-22T21:47:00.372Z,91.68
2024-04-22T21:50:04.922Z,90.53
2024-04-22T21:52:39.142Z,91.80
2024-04-22T21:55:52.714Z,92.32
2024-04-22T21:59:02.024Z,92.73
2024-04-22T22:02:15.890Z,92.46
2024-04-22T22:05:23.973Z,93.12
2024-04-22T22:07:53.944Z,93.05
2024-04-22T22:10:30.529Z,93.38
2024-04-22T22:12:59.780Z,94.13
2024-04-22T22:15:41.879Z,94.31
2024-04-22T22:18:10.927Z,94.37
2024-04-22T22:20:44.035Z,93.92
2024-04-22T22:23:11.913Z,94.84
2024-04-22T22:25:45.445Z,96.13
2024-04-22T22:28:18.410Z,95.99
2024-04-22T22:30:54.365Z,95.92
2024-04-22T22:33:22.093Z,95.62
2024-04-22T22:35:55.491Z,95.07
2024-04-22T22:38:26.150Z,95.56
2024-04-22T22:41:02.285Z,95.58
2024-04-22T22:43:37.193Z,96.16
2024-04-22T22:46:10.540Z,95.79
2024-04-22T22:48:41.767Z,95.71
2024-04-22T22:51:19.079Z,95.61
2024-04-22T22:54:00.725Z,95.23
2024-04-22T22:56:39.700Z,95.42
2024-04-22T22:59:11.447Z,95.28
2024-04-22T23:01:42.306Z,96.15
2024-04-22T23:04:13.184Z,96.07
2024-04-22T23:06:46.538Z,96.25
2024-04-22T23:09:17.001Z,95.32
2024-04-22T23:11:50.545Z,96.45
2024-04-22T23:14:20.534Z,97.10
2024-04-22T23:16:57.984Z,96.06
2024-04-22T23:19:48.162Z,96.61
2024-04-22T23:22:23.798Z,96.74
2024-04-22T23:24:59.934Z,93.86
2024-04-22T23:27:34.422Z,93.49
2024-04-22T23:30:05.298Z,95.11
2024-04-22T23:32:38.577Z,95.74
2024-04-22T23:35:11.181Z,94.89
2024-04-22T23:37:43.781Z,96.43
2024-04-22T23:40:14.280Z,98.05
2024-04-22T23:42:47.029Z,98.54
2024-04-22T23:45:15.255Z,99.16
2024-04-22T23:47:51.768Z,98.93
2024-04-22T23:50:21.792Z,98.81
2024-04-22T23:52:53.088Z,97.81
2024-04-22T23:55:24.979Z,97.69
2024-04-22T23:58:02.434Z,97.76
